sensor_id;sensor_type;location;lat;lon;timestamp;P1;durP1;ratioP1;P2;durP2;ratioP2
43552;SDS011;29153;42.696;23.218;2022-07-06T04:18:53;14.38;;;8.50;;
43552;SDS011;29153;42.696;23.218;2022-07-06T04:21:21;14.68;;;8.80;;
43552;SDS011;29153;42.696;23.218;2022-07-06T04:23:48;15.32;;;8.15;;
43552;SDS011;29153;42.696;23.218;2022-07-06T04:26:16;11.95;;;8.70;;
43552;SDS011;29153;42.696;23.218;2022-07-06T04:28:43;13.50;;;9.25;;
43552;SDS011;29153;42.696;23.218;2022-07-06T04:31:13;14.63;;;8.90;;
43552;SDS011;29153;42.696;23.218;2022-07-06T04:33:42;12.73;;;8.48;;
43552;SDS011;29153;42.696;23.218;2022-07-06T04:41:30;13.40;;;10.03;;
43552;SDS011;29153;42.696;23.218;2022-07-06T04:43:58;13.40;;;10.82;;
43552;SDS011;29153;42.696;23.218;2022-07-06T04:46:27;23.00;;;11.50;;
43552;SDS011;29153;42.696;23.218;2022-07-06T04:48:59;21.40;;;13.05;;
43552;SDS011;29153;42.696;23.218;2022-07-06T04:51:27;24.23;;;14.68;;
43552;SDS011;29153;42.696;23.218;2022-07-06T04:53:54;21.73;;;15.40;;
43552;SDS011;29153;42.696;23.218;2022-07-06T04:56:22;22.48;;;15.93;;
43552;SDS011;29153;42.696;23.218;2022-07-06T04:58:51;22.48;;;15.23;;
43552;SDS011;29153;42.696;23.218;2022-07-06T05:01:19;27.50;;;15.83;;
43552;SDS011;29153;42.696;23.218;2022-07-06T05:03:46;21.17;;;15.40;;
43552;SDS011;29153;42.696;23.218;2022-07-06T05:06:14;18.17;;;13.88;;
43552;SDS011;29153;42.696;23.218;2022-07-06T05:08:43;20.32;;;15.95;;
43552;SDS011;29153;42.696;23.218;2022-07-06T05:11:11;22.67;;;16.27;;
43552;SDS011;29153;42.696;23.218;2022-07-06T05:13:38;25.37;;;15.20;;
43552;SDS011;29153;42.696;23.218;2022-07-06T05:16:10;20.43;;;15.43;;
43552;SDS011;29153;42.696;23.218;2022-07-06T05:18:38;28.00;;;15.68;;
43552;SDS011;29153;42.696;23.218;2022-07-06T05:21:07;21.55;;;14.70;;
43552;SDS011;29153;42.696;23.218;2022-07-06T05:23:34;22.67;;;14.68;;
43552;SDS011;29153;42.696;23.218;2022-07-06T05:26:02;25.23;;;15.83;;
43552;SDS011;29153;42.696;23.218;2022-07-06T05:28:29;17.40;;;13.03;;
43552;SDS011;29153;42.696;23.218;2022-07-06T05:30:59;17.48;;;12.82;;
43552;SDS011;29153;42.696;23.218;2022-07-06T05:33:27;22.42;;;13.38;;
43552;SDS011;29153;42.696;23.218;2022-07-06T05:35:54;17.32;;;13.30;;
43552;SDS011;29153;42.696;23.218;2022-07-06T05:38:22;17.98;;;11.12;;
43552;SDS011;29153;42.696;23.218;2022-07-06T05:40:51;15.95;;;12.37;;
43552;SDS011;29153;42.696;23.218;2022-07-06T05:43:19;12.55;;;10.70;;
43552;SDS011;29153;42.696;23.218;2022-07-06T05:45:46;26.35;;;11.68;;
43552;SDS011;29153;42.696;23.218;2022-07-06T05:48:14;16.32;;;11.22;;
43552;SDS011;29153;42.696;23.218;2022-07-06T05:51:00;18.50;;;11.65;;
43552;SDS011;29153;42.696;23.218;2022-07-06T05:53:27;17.55;;;11.85;;
43552;SDS011;29153;42.696;23.218;2022-07-06T05:55:55;17.62;;;12.03;;
43552;SDS011;29153;42.696;23.218;2022-07-06T05:58:26;16.52;;;11.45;;
43552;SDS011;29153;42.696;23.218;2022-07-06T06:00:53;17.45;;;11.50;;
43552;SDS011;29153;42.696;23.218;2022-07-06T06:03:21;15.93;;;11.20;;
43552;SDS011;29153;42.696;23.218;2022-07-06T06:05:49;17.65;;;10.48;;
43552;SDS011;29153;42.696;23.218;2022-07-06T06:08:17;20.52;;;11.50;;
43552;SDS011;29153;42.696;23.218;2022-07-06T06:10:44;15.48;;;10.15;;
43552;SDS011;29153;42.696;23.218;2022-07-06T06:13:12;13.20;;;9.88;;
43552;SDS011;29153;42.696;23.218;2022-07-06T06:15:39;18.40;;;11.63;;
43552;SDS011;29153;42.696;23.218;2022-07-06T06:18:07;17.85;;;11.33;;
43552;SDS011;29153;42.696;23.218;2022-07-06T06:20:34;15.43;;;12.07;;
43552;SDS011;29153;42.696;23.218;2022-07-06T06:23:02;15.65;;;12.28;;
43552;SDS011;29153;42.696;23.218;2022-07-06T06:25:31;20.97;;;11.90;;
43552;SDS011;29153;42.696;23.218;2022-07-06T06:28:00;17.57;;;12.63;;
43552;SDS011;29153;42.696;23.218;2022-07-06T06:30:30;19.77;;;14.03;;
43552;SDS011;29153;42.696;23.218;2022-07-06T06:33:14;16.15;;;12.95;;
43552;SDS011;29153;42.696;23.218;2022-07-06T06:35:47;18.98;;;13.40;;
43552;SDS011;29153;42.696;23.218;2022-07-06T06:38:16;14.05;;;11.73;;
43552;SDS011;29153;42.696;23.218;2022-07-06T06:40:44;19.70;;;13.65;;
43552;SDS011;29153;42.696;23.218;2022-07-06T06:43:12;17.52;;;13.05;;
43552;SDS011;29153;42.696;23.218;2022-07-06T06:45:40;17.48;;;13.53;;
43552;SDS011;29153;42.696;23.218;2022-07-06T06:48:08;19.80;;;13.70;;
43552;SDS011;29153;42.696;23.218;2022-07-06T06:50:35;16.73;;;12.65;;
43552;SDS011;29153;42.696;23.218;2022-07-06T06:53:03;19.27;;;14.60;;
43552;SDS011;29153;42.696;23.218;2022-07-06T06:55:31;17.60;;;14.80;;
43552;SDS011;29153;42.696;23.218;2022-07-06T06:57:58;21.60;;;15.23;;
43552;SDS011;29153;42.696;23.218;2022-07-06T07:00:26;18.92;;;15.93;;
43552;SDS011;29153;42.696;23.218;2022-07-06T07:02:53;19.98;;;15.60;;
43552;SDS011;29153;42.696;23.218;2022-07-06T07:05:21;18.05;;;14.60;;
43552;SDS011;29153;42.696;23.218;2022-07-06T07:07:48;21.00;;;16.27;;
43552;SDS011;29153;42.696;23.218;2022-07-06T07:10:16;19.23;;;15.85;;
43552;SDS011;29153;42.696;23.218;2022-07-06T07:12:45;23.75;;;16.90;;
43552;SDS011;29153;42.696;23.218;2022-07-06T07:15:13;21.77;;;16.20;;
43552;SDS011;29153;42.696;23.218;2022-07-06T07:17:42;20.00;;;16.75;;
43552;SDS011;29153;42.696;23.218;2022-07-06T07:20:10;21.85;;;15.72;;
43552;SDS011;29153;42.696;23.218;2022-07-06T07:22:38;21.27;;;15.88;;
43552;SDS011;29153;42.696;23.218;2022-07-06T07:25:06;21.48;;;15.95;;
43552;SDS011;29153;42.696;23.218;2022-07-06T07:27:34;20.65;;;15.63;;
43552;SDS011;29153;42.696;23.218;2022-07-06T07:30:02;19.50;;;17.30;;
43552;SDS011;29153;42.696;23.218;2022-07-06T07:32:30;20.57;;;16.17;;
43552;SDS011;29153;42.696;23.218;2022-07-06T07:34:58;22.37;;;15.05;;
43552;SDS011;29153;42.696;23.218;2022-07-06T07:37:25;20.60;;;15.48;;
43552;SDS011;29153;42.696;23.218;2022-07-06T07:39:53;18.45;;;16.45;;
43552;SDS011;29153;42.696;23.218;2022-07-06T07:42:20;21.80;;;16.10;;
43552;SDS011;29153;42.696;23.218;2022-07-06T07:44:48;19.57;;;15.85;;
43552;SDS011;29153;42.696;23.218;2022-07-06T07:47:15;15.93;;;14.33;;
43552;SDS011;29153;42.696;23.218;2022-07-06T07:49:43;19.02;;;14.53;;
43552;SDS011;29153;42.696;23.218;2022-07-06T07:52:11;26.30;;;15.23;;
43552;SDS011;29153;42.696;23.218;2022-07-06T07:54:38;16.60;;;14.55;;
43552;SDS011;29153;42.696;23.218;2022-07-06T07:57:06;20.97;;;14.50;;
43552;SDS011;29153;42.696;23.218;2022-07-06T07:59:35;15.58;;;13.98;;
43552;SDS011;29153;42.696;23.218;2022-07-06T08:02:02;17.60;;;14.65;;
43552;SDS011;29153;42.696;23.218;2022-07-06T08:04:30;18.80;;;14.15;;
43552;SDS011;29153;42.696;23.218;2022-07-06T08:06:58;17.60;;;14.90;;
43552;SDS011;29153;42.696;23.218;2022-07-06T08:09:25;17.15;;;15.35;;
43552;SDS011;29153;42.696;23.218;2022-07-06T08:11:53;18.87;;;14.53;;
43552;SDS011;29153;42.696;23.218;2022-07-06T08:14:20;19.73;;;14.45;;
43552;SDS011;29153;42.696;23.218;2022-07-06T08:16:48;14.25;;;11.93;;
43552;SDS011;29153;42.696;23.218;2022-07-06T08:19:16;20.68;;;13.50;;
43552;SDS011;29153;42.696;23.218;2022-07-06T08:21:43;18.35;;;12.90;;
43552;SDS011;29153;42.696;23.218;2022-07-06T08:24:11;16.10;;;13.43;;
43552;SDS011;29153;42.696;23.218;2022-07-06T08:26:39;18.30;;;14.55;;
43552;SDS011;29153;42.696;23.218;2022-07-06T08:29:06;16.50;;;14.05;;
43552;SDS011;29153;42.696;23.218;2022-07-06T08:31:34;19.40;;;13.78;;
43552;SDS011;29153;42.696;23.218;2022-07-06T08:34:02;19.87;;;14.13;;
43552;SDS011;29153;42.696;23.218;2022-07-06T08:36:30;19.12;;;14.05;;
43552;SDS011;29153;42.696;23.218;2022-07-06T08:38:58;20.92;;;13.98;;
43552;SDS011;29153;42.696;23.218;2022-07-06T08:41:26;15.50;;;13.90;;
43552;SDS011;29153;42.696;23.218;2022-07-06T08:43:56;17.25;;;12.25;;
43552;SDS011;29153;42.696;23.218;2022-07-06T08:46:24;12.88;;;11.45;;
43552;SDS011;29153;42.696;23.218;2022-07-06T08:48:53;17.67;;;12.95;;
43552;SDS011;29153;42.696;23.218;2022-07-06T08:51:21;18.17;;;13.48;;
43552;SDS011;29153;42.696;23.218;2022-07-06T08:53:50;18.12;;;12.58;;
43552;SDS011;29153;42.696;23.218;2022-07-06T08:56:19;17.40;;;13.88;;
43552;SDS011;29153;42.696;23.218;2022-07-06T08:58:47;20.70;;;13.55;;
43552;SDS011;29153;42.696;23.218;2022-07-06T09:01:16;20.27;;;12.80;;
43552;SDS011;29153;42.696;23.218;2022-07-06T09:03:45;11.38;;;9.95;;
43552;SDS011;29153;42.696;23.218;2022-07-06T09:06:15;14.55;;;12.73;;
43552;SDS011;29153;42.696;23.218;2022-07-06T09:08:45;13.25;;;11.95;;
43552;SDS011;29153;42.696;23.218;2022-07-06T09:11:14;22.20;;;12.82;;
43552;SDS011;29153;42.696;23.218;2022-07-06T09:13:42;15.08;;;10.98;;
43552;SDS011;29153;42.696;23.218;2022-07-06T09:16:11;18.62;;;12.65;;
43552;SDS011;29153;42.696;23.218;2022-07-06T09:18:40;15.75;;;12.03;;
43552;SDS011;29153;42.696;23.218;2022-07-06T09:21:14;17.85;;;11.97;;
43552;SDS011;29153;42.696;23.218;2022-07-06T09:23:54;17.50;;;12.68;;
43552;SDS011;29153;42.696;23.218;2022-07-06T09:26:24;17.30;;;14.65;;
43552;SDS011;29153;42.696;23.218;2022-07-06T09:28:52;19.95;;;14.53;;
43552;SDS011;29153;42.696;23.218;2022-07-06T09:31:22;18.65;;;15.00;;
43552;SDS011;29153;42.696;23.218;2022-07-06T09:33:53;19.25;;;16.73;;
43552;SDS011;29153;42.696;23.218;2022-07-06T09:36:39;21.55;;;19.10;;
43552;SDS011;29153;42.696;23.218;2022-07-06T09:39:15;19.52;;;16.25;;
43552;SDS011;29153;42.696;23.218;2022-07-06T09:41:56;19.82;;;14.13;;
43552;SDS011;29153;42.696;23.218;2022-07-06T09:44:26;16.80;;;13.88;;
43552;SDS011;29153;42.696;23.218;2022-07-06T09:46:56;17.23;;;15.40;;
43552;SDS011;29153;42.696;23.218;2022-07-06T09:49:25;17.50;;;14.30;;
43552;SDS011;29153;42.696;23.218;2022-07-06T09:52:02;17.48;;;15.50;;
43552;SDS011;29153;42.696;23.218;2022-07-06T09:54:26;17.07;;;15.00;;
43552;SDS011;29153;42.696;23.218;2022-07-06T09:56:54;17.07;;;13.93;;
43552;SDS011;29153;42.696;23.218;2022-07-06T09:59:26;16.60;;;14.43;;
43552;SDS011;29153;42.696;23.218;2022-07-06T10:01:59;17.12;;;15.20;;
43552;SDS011;29153;42.696;23.218;2022-07-06T10:04:29;18.90;;;14.45;;
43552;SDS011;29153;42.696;23.218;2022-07-06T10:06:57;14.28;;;12.78;;
43552;SDS011;29153;42.696;23.218;2022-07-06T10:09:26;14.80;;;13.30;;
43552;SDS011;29153;42.696;23.218;2022-07-06T10:11:56;20.92;;;16.80;;
43552;SDS011;29153;42.696;23.218;2022-07-06T10:14:26;15.68;;;13.18;;
43552;SDS011;29153;42.696;23.218;2022-07-06T10:16:56;18.55;;;13.93;;
43552;SDS011;29153;42.696;23.218;2022-07-06T10:19:25;17.00;;;15.20;;
43552;SDS011;29153;42.696;23.218;2022-07-06T10:21:53;19.02;;;14.47;;
43552;SDS011;29153;42.696;23.218;2022-07-06T10:24:23;15.68;;;13.30;;
43552;SDS011;29153;42.696;23.218;2022-07-06T10:26:51;15.40;;;13.13;;
43552;SDS011;29153;42.696;23.218;2022-07-06T10:29:19;16.17;;;14.45;;
43552;SDS011;29153;42.696;23.218;2022-07-06T10:31:47;15.32;;;13.05;;
43552;SDS011;29153;42.696;23.218;2022-07-06T10:34:17;14.98;;;12.60;;
43552;SDS011;29153;42.696;23.218;2022-07-06T10:36:50;15.00;;;13.40;;
43552;SDS011;29153;42.696;23.218;2022-07-06T10:39:33;18.52;;;15.53;;
43552;SDS011;29153;42.696;23.218;2022-07-06T10:45:07;16.32;;;13.05;;
43552;SDS011;29153;42.696;23.218;2022-07-06T10:47:37;16.25;;;14.58;;
43552;SDS011;29153;42.696;23.218;2022-07-06T10:50:06;15.40;;;13.88;;
43552;SDS011;29153;42.696;23.218;2022-07-06T10:52:53;19.55;;;14.93;;
43552;SDS011;29153;42.696;23.218;2022-07-06T10:55:28;17.00;;;12.88;;
43552;SDS011;29153;42.696;23.218;2022-07-06T10:58:01;16.62;;;13.20;;
43552;SDS011;29153;42.696;23.218;2022-07-06T11:00:49;19.45;;;12.20;;
43552;SDS011;29153;42.696;23.218;2022-07-06T11:06:01;16.50;;;14.85;;
43552;SDS011;29153;42.696;23.218;2022-07-06T11:11:25;18.00;;;16.02;;
43552;SDS011;29153;42.696;23.218;2022-07-06T11:13:56;18.67;;;16.77;;
43552;SDS011;29153;42.696;23.218;2022-07-06T11:16:28;17.10;;;15.40;;
43552;SDS011;29153;42.696;23.218;2022-07-06T11:19:00;16.85;;;15.25;;
43552;SDS011;29153;42.696;23.218;2022-07-06T11:21:36;22.62;;;18.02;;
43552;SDS011;29153;42.696;23.218;2022-07-06T11:24:06;16.73;;;14.40;;
43552;SDS011;29153;42.696;23.218;2022-07-06T11:26:36;19.50;;;16.85;;
43552;SDS011;29153;42.696;23.218;2022-07-06T11:29:04;18.00;;;14.18;;
43552;SDS011;29153;42.696;23.218;2022-07-06T11:31:34;17.52;;;15.58;;
43552;SDS011;29153;42.696;23.218;2022-07-06T11:34:04;15.28;;;12.88;;
43552;SDS011;29153;42.696;23.218;2022-07-06T11:36:32;16.37;;;14.23;;
43552;SDS011;29153;42.696;23.218;2022-07-06T11:39:01;16.48;;;13.78;;
43552;SDS011;29153;42.696;23.218;2022-07-06T11:41:28;16.93;;;15.32;;
43552;SDS011;29153;42.696;23.218;2022-07-06T11:43:56;15.78;;;13.55;;
43552;SDS011;29153;42.696;23.218;2022-07-06T11:46:28;14.07;;;12.47;;
43552;SDS011;29153;42.696;23.218;2022-07-06T11:48:58;16.40;;;14.68;;
43552;SDS011;29153;42.696;23.218;2022-07-06T11:51:28;15.95;;;14.30;;
43552;SDS011;29153;42.696;23.218;2022-07-06T11:53:58;16.37;;;13.58;;
43552;SDS011;29153;42.696;23.218;2022-07-06T11:56:28;15.23;;;13.70;;
43552;SDS011;29153;42.696;23.218;2022-07-06T11:58:57;18.32;;;16.35;;
43552;SDS011;29153;42.696;23.218;2022-07-06T12:01:28;15.60;;;13.95;;
43552;SDS011;29153;42.696;23.218;2022-07-06T12:03:58;17.92;;;13.80;;
43552;SDS011;29153;42.696;23.218;2022-07-06T12:06:28;14.43;;;13.03;;
43552;SDS011;29153;42.696;23.218;2022-07-06T12:08:57;13.32;;;11.40;;
43552;SDS011;29153;42.696;23.218;2022-07-06T12:11:30;10.98;;;9.90;;
43552;SDS011;29153;42.696;23.218;2022-07-06T12:14:14;11.88;;;10.75;;
43552;SDS011;29153;42.696;23.218;2022-07-06T12:16:45;12.35;;;9.90;;
43552;SDS011;29153;42.696;23.218;2022-07-06T12:19:15;10.32;;;8.75;;
43552;SDS011;29153;42.696;23.218;2022-07-06T12:21:44;9.50;;;8.53;;
43552;SDS011;29153;42.696;23.218;2022-07-06T12:24:22;11.28;;;9.63;;
43552;SDS011;29153;42.696;23.218;2022-07-06T12:26:47;9.60;;;8.18;;
43552;SDS011;29153;42.696;23.218;2022-07-06T12:29:15;8.95;;;8.15;;
43552;SDS011;29153;42.696;23.218;2022-07-06T12:31:43;9.03;;;8.18;;
43552;SDS011;29153;42.696;23.218;2022-07-06T12:34:18;8.00;;;6.50;;
43552;SDS011;29153;42.696;23.218;2022-07-06T12:36:50;8.25;;;7.22;;
43552;SDS011;29153;42.696;23.218;2022-07-06T12:39:20;9.95;;;8.65;;
43552;SDS011;29153;42.696;23.218;2022-07-06T12:44:25;9.90;;;8.23;;
43552;SDS011;29153;42.696;23.218;2022-07-06T12:47:05;9.58;;;7.75;;
43552;SDS011;29153;42.696;23.218;2022-07-06T12:49:35;14.83;;;7.65;;
43552;SDS011;29153;42.696;23.218;2022-07-06T12:54:41;8.15;;;6.87;;
43552;SDS011;29153;42.696;23.218;2022-07-06T12:57:19;7.60;;;5.42;;
43552;SDS011;29153;42.696;23.218;2022-07-06T13:04:56;8.60;;;5.45;;
43552;SDS011;29153;42.696;23.218;2022-07-06T13:07:25;6.58;;;5.17;;
43552;SDS011;29153;42.696;23.218;2022-07-06T13:09:54;5.22;;;4.75;;
43552;SDS011;29153;42.696;23.218;2022-07-06T13:12:22;7.95;;;4.85;;
43552;SDS011;29153;42.696;23.218;2022-07-06T13:14:50;7.22;;;4.85;;
43552;SDS011;29153;42.696;23.218;2022-07-06T13:17:18;4.90;;;4.50;;
43552;SDS011;29153;42.696;23.218;2022-07-06T13:19:46;6.87;;;4.30;;
43552;SDS011;29153;42.696;23.218;2022-07-06T13:22:13;9.53;;;4.83;;
43552;SDS011;29153;42.696;23.218;2022-07-06T13:24:41;5.22;;;4.15;;
43552;SDS011;29153;42.696;23.218;2022-07-06T13:27:09;5.75;;;4.10;;
43552;SDS011;29153;42.696;23.218;2022-07-06T13:29:37;6.12;;;3.50;;
43552;SDS011;29153;42.696;23.218;2022-07-06T13:32:04;4.83;;;2.90;;
43552;SDS011;29153;42.696;23.218;2022-07-06T13:34:32;3.20;;;2.70;;
43552;SDS011;29153;42.696;23.218;2022-07-06T13:37:03;3.52;;;3.15;;
43552;SDS011;29153;42.696;23.218;2022-07-06T13:39:32;2.50;;;2.30;;
43552;SDS011;29153;42.696;23.218;2022-07-06T13:41:59;3.90;;;2.72;;
43552;SDS011;29153;42.696;23.218;2022-07-06T13:44:28;5.30;;;2.77;;
43552;SDS011;29153;42.696;23.218;2022-07-06T13:46:55;8.00;;;2.75;;
43552;SDS011;29153;42.696;23.218;2022-07-06T13:49:23;5.58;;;2.35;;
43552;SDS011;29153;42.696;23.218;2022-07-06T13:51:51;4.75;;;2.70;;
43552;SDS011;29153;42.696;23.218;2022-07-06T13:54:20;3.72;;;2.10;;
43552;SDS011;29153;42.696;23.218;2022-07-06T13:56:49;6.17;;;2.80;;
43552;SDS011;29153;42.696;23.218;2022-07-06T13:59:17;2.95;;;2.05;;
43552;SDS011;29153;42.696;23.218;2022-07-06T14:01:44;2.92;;;2.62;;
43552;SDS011;29153;42.696;23.218;2022-07-06T14:04:12;5.83;;;2.42;;
43552;SDS011;29153;42.696;23.218;2022-07-06T14:06:39;5.37;;;2.70;;
43552;SDS011;29153;42.696;23.218;2022-07-06T14:09:07;3.08;;;2.62;;
43552;SDS011;29153;42.696;23.218;2022-07-06T14:11:34;5.83;;;2.27;;
43552;SDS011;29153;42.696;23.218;2022-07-06T14:14:02;3.55;;;2.37;;
43552;SDS011;29153;42.696;23.218;2022-07-06T14:16:31;5.62;;;2.47;;
43552;SDS011;29153;42.696;23.218;2022-07-06T14:19:00;2.30;;;2.10;;
43552;SDS011;29153;42.696;23.218;2022-07-06T14:21:28;3.20;;;2.47;;
43552;SDS011;29153;42.696;23.218;2022-07-06T14:23:56;2.83;;;2.62;;
43552;SDS011;29153;42.696;23.218;2022-07-06T14:26:24;4.97;;;2.70;;
43552;SDS011;29153;42.696;23.218;2022-07-06T14:28:51;2.45;;;2.02;;
43552;SDS011;29153;42.696;23.218;2022-07-06T14:31:19;3.33;;;2.40;;
43552;SDS011;29153;42.696;23.218;2022-07-06T14:33:47;3.08;;;2.25;;
43552;SDS011;29153;42.696;23.218;2022-07-06T14:36:15;6.55;;;2.50;;
43552;SDS011;29153;42.696;23.218;2022-07-06T14:38:43;9.50;;;2.40;;
43552;SDS011;29153;42.696;23.218;2022-07-06T14:41:11;5.50;;;2.30;;
43552;SDS011;29153;42.696;23.218;2022-07-06T14:43:39;4.83;;;2.37;;
43552;SDS011;29153;42.696;23.218;2022-07-06T14:46:07;2.40;;;1.92;;
43552;SDS011;29153;42.696;23.218;2022-07-06T14:48:34;5.65;;;2.33;;
43552;SDS011;29153;42.696;23.218;2022-07-06T14:51:02;2.98;;;2.58;;
43552;SDS011;29153;42.696;23.218;2022-07-06T14:53:29;4.92;;;2.33;;
43552;SDS011;29153;42.696;23.218;2022-07-06T14:55:57;2.35;;;2.15;;
43552;SDS011;29153;42.696;23.218;2022-07-06T14:58:25;3.72;;;2.50;;
43552;SDS011;29153;42.696;23.218;2022-07-06T15:00:52;4.35;;;2.95;;
43552;SDS011;29153;42.696;23.218;2022-07-06T15:03:20;8.13;;;2.95;;
43552;SDS011;29153;42.696;23.218;2022-07-06T15:05:48;5.42;;;2.20;;
43552;SDS011;29153;42.696;23.218;2022-07-06T15:08:16;3.92;;;2.60;;
43552;SDS011;29153;42.696;23.218;2022-07-06T15:10:44;3.05;;;2.20;;
43552;SDS011;29153;42.696;23.218;2022-07-06T15:13:11;3.90;;;2.47;;
43552;SDS011;29153;42.696;23.218;2022-07-06T15:15:39;3.33;;;2.20;;
43552;SDS011;29153;42.696;23.218;2022-07-06T15:18:07;2.40;;;2.20;;
43552;SDS011;29153;42.696;23.218;2022-07-06T15:20:34;3.72;;;2.40;;
43552;SDS011;29153;42.696;23.218;2022-07-06T15:23:02;2.00;;;1.90;;
43552;SDS011;29153;42.696;23.218;2022-07-06T15:25:31;3.80;;;2.20;;
43552;SDS011;29153;42.696;23.218;2022-07-06T15:27:59;5.58;;;2.50;;
43552;SDS011;29153;42.696;23.218;2022-07-06T15:30:26;2.25;;;2.00;;
43552;SDS011;29153;42.696;23.218;2022-07-06T15:32:56;2.40;;;2.20;;
43552;SDS011;29153;42.696;23.218;2022-07-06T15:35:24;2.30;;;2.08;;
43552;SDS011;29153;42.696;23.218;2022-07-06T15:37:52;2.15;;;1.95;;
43552;SDS011;29153;42.696;23.218;2022-07-06T15:40:20;2.60;;;1.80;;
43552;SDS011;29153;42.696;23.218;2022-07-06T15:42:50;3.42;;;2.12;;
43552;SDS011;29153;42.696;23.218;2022-07-06T15:45:20;1.75;;;1.65;;
43552;SDS011;29153;42.696;23.218;2022-07-06T15:47:49;1.65;;;1.55;;
43552;SDS011;29153;42.696;23.218;2022-07-06T15:50:17;2.00;;;1.72;;
43552;SDS011;29153;42.696;23.218;2022-07-06T15:52:46;1.80;;;1.70;;
43552;SDS011;29153;42.696;23.218;2022-07-06T15:55:14;3.30;;;1.65;;
43552;SDS011;29153;42.696;23.218;2022-07-06T15:57:41;2.10;;;1.90;;
43552;SDS011;29153;42.696;23.218;2022-07-06T16:00:09;8.00;;;2.40;;
43552;SDS011;29153;42.696;23.218;2022-07-06T16:02:37;5.35;;;1.80;;
43552;SDS011;29153;42.696;23.218;2022-07-06T16:05:04;2.95;;;2.10;;
43552;SDS011;29153;42.696;23.218;2022-07-06T16:07:33;3.80;;;2.20;;
43552;SDS011;29153;42.696;23.218;2022-07-06T16:10:00;8.20;;;2.05;;
43552;SDS011;29153;42.696;23.218;2022-07-06T16:12:29;3.25;;;2.30;;
43552;SDS011;29153;42.696;23.218;2022-07-06T16:14:56;2.58;;;1.98;;
43552;SDS011;29153;42.696;23.218;2022-07-06T16:17:24;3.90;;;2.00;;
43552;SDS011;29153;42.696;23.218;2022-07-06T16:19:51;3.45;;;2.05;;
43552;SDS011;29153;42.696;23.218;2022-07-06T16:22:19;2.00;;;1.85;;
43552;SDS011;29153;42.696;23.218;2022-07-06T16:24:47;2.22;;;1.72;;
43552;SDS011;29153;42.696;23.218;2022-07-06T16:27:14;1.98;;;1.87;;
43552;SDS011;29153;42.696;23.218;2022-07-06T16:29:42;1.90;;;1.75;;
43552;SDS011;29153;42.696;23.218;2022-07-06T16:32:10;5.42;;;2.10;;
43552;SDS011;29153;42.696;23.218;2022-07-06T16:34:37;1.98;;;1.87;;
43552;SDS011;29153;42.696;23.218;2022-07-06T16:37:05;4.20;;;1.95;;
43552;SDS011;29153;42.696;23.218;2022-07-06T16:39:33;4.12;;;2.20;;
43552;SDS011;29153;42.696;23.218;2022-07-06T16:42:01;2.20;;;2.00;;
43552;SDS011;29153;42.696;23.218;2022-07-06T16:44:29;2.55;;;2.00;;
43552;SDS011;29153;42.696;23.218;2022-07-06T16:46:57;2.58;;;2.37;;
43552;SDS011;29153;42.696;23.218;2022-07-06T16:49:24;2.45;;;2.25;;
43552;SDS011;29153;42.696;23.218;2022-07-06T16:51:52;2.08;;;1.98;;
43552;SDS011;29153;42.696;23.218;2022-07-06T16:54:20;9.08;;;2.02;;
43552;SDS011;29153;42.696;23.218;2022-07-06T16:56:47;7.47;;;2.15;;
43552;SDS011;29153;42.696;23.218;2022-07-06T16:59:15;2.65;;;2.30;;
43552;SDS011;29153;42.696;23.218;2022-07-06T17:01:42;3.75;;;2.12;;
43552;SDS011;29153;42.696;23.218;2022-07-06T17:04:10;5.08;;;2.65;;
43552;SDS011;29153;42.696;23.218;2022-07-06T17:06:37;3.33;;;2.50;;
43552;SDS011;29153;42.696;23.218;2022-07-06T17:09:05;2.90;;;2.45;;
43552;SDS011;29153;42.696;23.218;2022-07-06T17:11:33;2.55;;;2.35;;
43552;SDS011;29153;42.696;23.218;2022-07-06T17:14:01;5.55;;;2.42;;
43552;SDS011;29153;42.696;23.218;2022-07-06T17:16:28;3.52;;;2.40;;
43552;SDS011;29153;42.696;23.218;2022-07-06T17:18:56;4.80;;;2.52;;
43552;SDS011;29153;42.696;23.218;2022-07-06T17:21:23;2.75;;;2.00;;
43552;SDS011;29153;42.696;23.218;2022-07-06T17:23:51;4.28;;;2.30;;
43552;SDS011;29153;42.696;23.218;2022-07-06T17:26:19;2.40;;;2.15;;
43552;SDS011;29153;42.696;23.218;2022-07-06T17:28:46;2.50;;;2.30;;
43552;SDS011;29153;42.696;23.218;2022-07-06T17:31:14;2.37;;;2.17;;
43552;SDS011;29153;42.696;23.218;2022-07-06T17:33:42;2.80;;;2.35;;
43552;SDS011;29153;42.696;23.218;2022-07-06T17:51:23;4.70;;;2.45;;
43552;SDS011;29153;42.696;23.218;2022-07-06T17:53:51;2.83;;;2.45;;
43552;SDS011;29153;42.696;23.218;2022-07-06T17:56:19;3.37;;;2.15;;
43552;SDS011;29153;42.696;23.218;2022-07-06T17:58:46;5.22;;;2.12;;
43552;SDS011;29153;42.696;23.218;2022-07-06T18:01:14;2.80;;;2.30;;
43552;SDS011;29153;42.696;23.218;2022-07-06T18:03:42;3.85;;;1.90;;
43552;SDS011;29153;42.696;23.218;2022-07-06T18:06:09;3.15;;;2.10;;
43552;SDS011;29153;42.696;23.218;2022-07-06T18:08:37;2.17;;;2.05;;
43552;SDS011;29153;42.696;23.218;2022-07-06T18:11:05;2.75;;;2.12;;
43552;SDS011;29153;42.696;23.218;2022-07-06T18:13:34;3.10;;;2.17;;
43552;SDS011;29153;42.696;23.218;2022-07-06T18:16:02;4.47;;;2.60;;
43552;SDS011;29153;42.696;23.218;2022-07-06T18:18:30;2.90;;;2.35;;
43552;SDS011;29153;42.696;23.218;2022-07-06T18:20:58;2.40;;;2.20;;
43552;SDS011;29153;42.696;23.218;2022-07-06T18:23:26;4.62;;;2.83;;
43552;SDS011;29153;42.696;23.218;2022-07-06T18:25:55;4.67;;;2.52;;
43552;SDS011;29153;42.696;23.218;2022-07-06T18:28:23;2.47;;;2.27;;
43552;SDS011;29153;42.696;23.218;2022-07-06T18:30:50;4.30;;;2.58;;
43552;SDS011;29153;42.696;23.218;2022-07-06T18:33:18;2.77;;;2.58;;
43552;SDS011;29153;42.696;23.218;2022-07-06T18:35:47;6.22;;;3.45;;
43552;SDS011;29153;42.696;23.218;2022-07-06T18:38:16;3.92;;;3.62;;
43552;SDS011;29153;42.696;23.218;2022-07-06T18:40:47;4.67;;;3.85;;
43552;SDS011;29153;42.696;23.218;2022-07-06T18:43:16;4.03;;;3.62;;
43552;SDS011;29153;42.696;23.218;2022-07-06T18:45:44;4.87;;;3.77;;
43552;SDS011;29153;42.696;23.218;2022-07-06T18:48:16;7.78;;;3.92;;
43552;SDS011;29153;42.696;23.218;2022-07-06T18:50:44;5.53;;;3.58;;
43552;SDS011;29153;42.696;23.218;2022-07-06T18:53:13;4.65;;;4.25;;
43552;SDS011;29153;42.696;23.218;2022-07-06T18:55:42;4.12;;;3.70;;
43552;SDS011;29153;42.696;23.218;2022-07-06T18:58:10;6.28;;;4.17;;
43552;SDS011;29153;42.696;23.218;2022-07-06T19:00:38;7.60;;;4.33;;
43552;SDS011;29153;42.696;23.218;2022-07-06T19:03:06;5.40;;;4.30;;
43552;SDS011;29153;42.696;23.218;2022-07-06T19:05:34;7.40;;;4.70;;
43552;SDS011;29153;42.696;23.218;2022-07-06T19:08:01;4.83;;;4.42;;
43552;SDS011;29153;42.696;23.218;2022-07-06T19:10:29;5.67;;;4.95;;
43552;SDS011;29153;42.696;23.218;2022-07-06T19:12:57;5.12;;;4.72;;
43552;SDS011;29153;42.696;23.218;2022-07-06T19:15:24;5.30;;;4.90;;
43552;SDS011;29153;42.696;23.218;2022-07-06T19:17:52;5.75;;;5.30;;
43552;SDS011;29153;42.696;23.218;2022-07-06T19:20:20;5.55;;;5.10;;
43552;SDS011;29153;42.696;23.218;2022-07-06T19:22:48;5.78;;;5.28;;
43552;SDS011;29153;42.696;23.218;2022-07-06T19:25:15;5.62;;;5.03;;
43552;SDS011;29153;42.696;23.218;2022-07-06T19:27:43;6.33;;;5.83;;